sensor_id;sensor_type;location;lat;lon;timestamp;pressure;altitude;pressure_sealevel;temperature;humidity
44872;BME280;30602;51.060;17.226;2022-08-19T00:02:09;100786.27;;;24.13;63.99
44872;BME280;30602;51.060;17.226;2022-08-19T00:05:38;100791.54;;;24.10;64.58
44872;BME280;30602;51.060;17.226;2022-08-19T00:13:42;100774.60;;;23.77;65.91
44872;BME280;30602;51.060;17.226;2022-08-19T00:17:15;100767.66;;;23.76;65.39
44872;BME280;30602;51.060;17.226;2022-08-19T00:20:43;100756.74;;;23.62;65.95
44872;BME280;30602;51.060;17.226;2022-08-19T00:24:07;100749.91;;;23.51;66.26
44872;BME280;30602;51.060;17.226;2022-08-19T00:27:52;100745.84;;;23.57;66.03
44872;BME280;30602;51.060;17.226;2022-08-19T00:31:06;100739.94;;;23.51;66.13
44872;BME280;30602;51.060;17.226;2022-08-19T00:34:48;100735.87;;;23.47;66.31
44872;BME280;30602;51.060;17.226;2022-08-19T00:38:57;100734.35;;;23.36;66.73
44872;BME280;30602;51.060;17.226;2022-08-19T00:42:38;100736.55;;;23.15;67.41
44872;BME280;30602;51.060;17.226;2022-08-19T00:46:23;100732.75;;;23.06;67.99
44872;BME280;30602;51.060;17.226;2022-08-19T00:49:53;100733.04;;;23.00;68.06
44872;BME280;30602;51.060;17.226;2022-08-19T00:53:08;100735.51;;;23.05;67.96
44872;BME280;30602;51.060;17.226;2022-08-19T00:56:34;100736.59;;;23.05;67.83
44872;BME280;30602;51.060;17.226;2022-08-19T00:59:47;100740.99;;;23.09;67.71
44872;BME280;30602;51.060;17.226;2022-08-19T01:03:59;100749.65;;;22.95;68.63
44872;BME280;30602;51.060;17.226;2022-08-19T01:08:06;100744.19;;;23.01;68.88
44872;BME280;30602;51.060;17.226;2022-08-19T01:11:23;100743.72;;;22.97;68.54
44872;BME280;30602;51.060;17.226;2022-08-19T01:15:21;100751.65;;;22.94;69.45
44872;BME280;30602;51.060;17.226;2022-08-19T01:18:41;100739.21;;;22.99;69.52
44872;BME280;30602;51.060;17.226;2022-08-19T01:22:01;100724.01;;;23.00;69.74
44872;BME280;30602;51.060;17.226;2022-08-19T01:25:50;100696.12;;;22.95;69.89
44872;BME280;30602;51.060;17.226;2022-08-19T01:29:00;100684.95;;;22.99;69.31
44872;BME280;30602;51.060;17.226;2022-08-19T01:32:40;100687.96;;;22.99;69.49
44872;BME280;30602;51.060;17.226;2022-08-19T01:36:30;100694.30;;;23.05;69.63
44872;BME280;30602;51.060;17.226;2022-08-19T01:39:43;100692.30;;;23.03;69.29
44872;BME280;30602;51.060;17.226;2022-08-19T01:43:03;100690.48;;;22.86;70.14
44872;BME280;30602;51.060;17.226;2022-08-19T01:46:18;100695.45;;;22.73;70.80
44872;BME280;30602;51.060;17.226;2022-08-19T01:49:49;100694.28;;;22.51;71.68
44872;BME280;30602;51.060;17.226;2022-08-19T01:53:09;100691.61;;;22.39;72.29
44872;BME280;30602;51.060;17.226;2022-08-19T01:56:38;100689.22;;;22.31;72.68
44872;BME280;30602;51.060;17.226;2022-08-19T01:59:48;100686.38;;;22.19;72.90
44872;BME280;30602;51.060;17.226;2022-08-19T02:03:09;100683.53;;;22.10;73.56
44872;BME280;30602;51.060;17.226;2022-08-19T02:06:31;100681.52;;;22.09;73.95
44872;BME280;30602;51.060;17.226;2022-08-19T02:10:06;100680.77;;;22.01;73.88
44872;BME280;30602;51.060;17.226;2022-08-19T02:13:16;100685.75;;;21.84;74.68
44872;BME280;30602;51.060;17.226;2022-08-19T02:16:46;100687.38;;;21.67;75.58
44872;BME280;30602;51.060;17.226;2022-08-19T02:20:17;100683.65;;;21.55;75.75
44872;BME280;30602;51.060;17.226;2022-08-19T02:24:00;100673.87;;;21.42;76.23
44872;BME280;30602;51.060;17.226;2022-08-19T02:27:29;100671.91;;;21.32;76.62
44872;BME280;30602;51.060;17.226;2022-08-19T02:31:08;100668.97;;;21.21;77.40
44872;BME280;30602;51.060;17.226;2022-08-19T02:34:49;100672.34;;;21.32;76.88
44872;BME280;30602;51.060;17.226;2022-08-19T02:37:59;100664.79;;;21.25;76.95
44872;BME280;30602;51.060;17.226;2022-08-19T02:41:38;100658.16;;;21.14;77.43
44872;BME280;30602;51.060;17.226;2022-08-19T02:45:16;100655.12;;;21.07;77.43
44872;BME280;30602;51.060;17.226;2022-08-19T02:48:49;100662.24;;;21.06;77.56
44872;BME280;30602;51.060;17.226;2022-08-19T02:52:19;100664.69;;;21.02;78.13
44872;BME280;30602;51.060;17.226;2022-08-19T02:55:54;100669.41;;;20.94;78.87
44872;BME280;30602;51.060;17.226;2022-08-19T02:59:30;100664.82;;;20.90;78.99
44872;BME280;30602;51.060;17.226;2022-08-19T03:02:43;100661.16;;;20.72;79.67
44872;BME280;30602;51.060;17.226;2022-08-19T03:06:11;100653.61;;;20.57;80.18
44872;BME280;30602;51.060;17.226;2022-08-19T03:09:22;100652.69;;;20.52;80.72
44872;BME280;30602;51.060;17.226;2022-08-19T03:13:17;100663.87;;;20.49;81.21
44872;BME280;30602;51.060;17.226;2022-08-19T03:16:51;100678.86;;;20.47;81.08
44872;BME280;30602;51.060;17.226;2022-08-19T03:20:25;100696.84;;;20.49;81.23
44872;BME280;30602;51.060;17.226;2022-08-19T03:24:13;100713.62;;;20.38;81.42
44872;BME280;30602;51.060;17.226;2022-08-19T03:27:47;100715.28;;;20.45;81.40
44872;BME280;30602;51.060;17.226;2022-08-19T03:31:22;100709.41;;;20.38;81.64
44872;BME280;30602;51.060;17.226;2022-08-19T03:34:53;100708.37;;;20.35;81.90
44872;BME280;30602;51.060;17.226;2022-08-19T03:38:29;100704.51;;;20.27;81.97
44872;BME280;30602;51.060;17.226;2022-08-19T03:42:16;100696.27;;;20.14;82.35
44872;BME280;30602;51.060;17.226;2022-08-19T03:45:48;100704.20;;;20.22;82.52
44872;BME280;30602;51.060;17.226;2022-08-19T03:49:33;100703.53;;;20.21;82.57
44872;BME280;30602;51.060;17.226;2022-08-19T03:53:03;100702.91;;;20.14;83.03
44872;BME280;30602;51.060;17.226;2022-08-19T03:56:15;100708.32;;;20.11;83.30
44872;BME280;30602;51.060;17.226;2022-08-19T03:59:43;100718.06;;;20.05;83.84
44872;BME280;30602;51.060;17.226;2022-08-19T04:02:57;100718.67;;;20.03;84.34
44872;BME280;30602;51.060;17.226;2022-08-19T04:06:20;100728.90;;;20.09;84.55
44872;BME280;30602;51.060;17.226;2022-08-19T04:09:55;100735.83;;;20.15;84.75
44872;BME280;30602;51.060;17.226;2022-08-19T04:13:42;100728.78;;;20.19;84.24
44872;BME280;30602;51.060;17.226;2022-08-19T04:17:36;100733.46;;;20.28;83.84
44872;BME280;30602;51.060;17.226;2022-08-19T04:24:39;100743.93;;;20.55;84.48
44872;BME280;30602;51.060;17.226;2022-08-19T04:28:41;100739.59;;;20.66;83.83
44872;BME280;30602;51.060;17.226;2022-08-19T04:31:54;100741.11;;;20.99;82.04
44872;BME280;30602;51.060;17.226;2022-08-19T04:35:49;100739.10;;;21.19;81.35
44872;BME280;30602;51.060;17.226;2022-08-19T04:39:28;100733.30;;;21.40;80.05
44872;BME280;30602;51.060;17.226;2022-08-19T04:42:51;100729.05;;;21.55;79.90
44872;BME280;30602;51.060;17.226;2022-08-19T04:46:09;100726.28;;;21.62;79.69
44872;BME280;30602;51.060;17.226;2022-08-19T04:49:52;100724.29;;;21.68;79.51
44872;BME280;30602;51.060;17.226;2022-08-19T04:53:03;100727.77;;;21.79;78.77
44872;BME280;30602;51.060;17.226;2022-08-19T04:56:21;100730.49;;;21.89;78.76
44872;BME280;30602;51.060;17.226;2022-08-19T04:59:56;100723.53;;;21.99;78.16
44872;BME280;30602;51.060;17.226;2022-08-19T05:03:12;100713.13;;;22.09;77.67
44872;BME280;30602;51.060;17.226;2022-08-19T05:06:51;100704.34;;;22.18;78.01
44872;BME280;30602;51.060;17.226;2022-08-19T05:10:03;100705.05;;;22.20;78.57
44872;BME280;30602;51.060;17.226;2022-08-19T05:13:30;100717.95;;;22.22;77.88
44872;BME280;30602;51.060;17.226;2022-08-19T05:17:02;100715.45;;;22.30;77.28
44872;BME280;30602;51.060;17.226;2022-08-19T05:20:31;100709.43;;;22.30;77.25
44872;BME280;30602;51.060;17.226;2022-08-19T05:24:01;100713.62;;;22.45;77.27
44872;BME280;30602;51.060;17.226;2022-08-19T05:27:08;100710.76;;;22.56;77.08
44872;BME280;30602;51.060;17.226;2022-08-19T05:30:26;100704.89;;;22.63;76.61
44872;BME280;30602;51.060;17.226;2022-08-19T05:33:40;100712.66;;;22.62;76.66
44872;BME280;30602;51.060;17.226;2022-08-19T05:36:51;100710.23;;;22.65;76.67
44872;BME280;30602;51.060;17.226;2022-08-19T05:44:05;100733.67;;;22.82;76.18
44872;BME280;30602;51.060;17.226;2022-08-19T05:47:39;100730.86;;;22.86;75.82
44872;BME280;30602;51.060;17.226;2022-08-19T05:51:16;100718.27;;;22.90;75.86
44872;BME280;30602;51.060;17.226;2022-08-19T05:54:48;100715.00;;;23.17;74.97
44872;BME280;30602;51.060;17.226;2022-08-19T06:02:38;100713.51;;;23.24;74.62
44872;BME280;30602;51.060;17.226;2022-08-19T06:05:57;100707.95;;;23.28;75.21
44872;BME280;30602;51.060;17.226;2022-08-19T06:09:07;100720.15;;;23.27;76.02
44872;BME280;30602;51.060;17.226;2022-08-19T06:13:04;100732.94;;;23.29;76.21
44872;BME280;30602;51.060;17.226;2022-08-19T06:16:46;100749.04;;;23.37;75.59
44872;BME280;30602;51.060;17.226;2022-08-19T06:20:06;100758.06;;;23.50;75.49
44872;BME280;30602;51.060;17.226;2022-08-19T06:23:58;100759.81;;;23.66;74.96
44872;BME280;30602;51.060;17.226;2022-08-19T06:27:29;100764.17;;;23.73;73.63
44872;BME280;30602;51.060;17.226;2022-08-19T06:30:44;100772.22;;;23.76;72.97
44872;BME280;30602;51.060;17.226;2022-08-19T06:34:29;100770.23;;;23.80;73.18
44872;BME280;30602;51.060;17.226;2022-08-19T06:37:43;100781.09;;;23.91;74.59
44872;BME280;30602;51.060;17.226;2022-08-19T06:41:16;100798.73;;;24.00;72.48
44872;BME280;30602;51.060;17.226;2022-08-19T06:46:12;100799.50;;;24.16;72.37
44872;BME280;30602;51.060;17.226;2022-08-19T06:49:49;100811.93;;;24.37;72.78
44872;BME280;30602;51.060;17.226;2022-08-19T06:53:25;100816.30;;;24.38;73.16
44872;BME280;30602;51.060;17.226;2022-08-19T06:57:05;100812.85;;;24.58;71.92
44872;BME280;30602;51.060;17.226;2022-08-19T07:00:50;100816.97;;;24.71;71.74
44872;BME280;30602;51.060;17.226;2022-08-19T07:04:25;100814.62;;;24.90;70.45
44872;BME280;30602;51.060;17.226;2022-08-19T07:07:47;100819.16;;;25.15;68.30
44872;BME280;30602;51.060;17.226;2022-08-19T07:11:29;100822.88;;;25.40;67.46
44872;BME280;30602;51.060;17.226;2022-08-19T07:14:45;100818.87;;;25.59;64.38
44872;BME280;30602;51.060;17.226;2022-08-19T07:18:22;100820.98;;;25.77;62.75
44872;BME280;30602;51.060;17.226;2022-08-19T07:21:36;100822.77;;;25.85;62.97
44872;BME280;30602;51.060;17.226;2022-08-19T07:24:56;100824.57;;;26.06;61.49
44872;BME280;30602;51.060;17.226;2022-08-19T07:28:26;100823.73;;;26.23;61.22
44872;BME280;30602;51.060;17.226;2022-08-19T07:31:45;100833.08;;;26.31;60.56
44872;BME280;30602;51.060;17.226;2022-08-19T07:34:59;100841.22;;;26.53;60.64
44872;BME280;30602;51.060;17.226;2022-08-19T07:38:11;100845.65;;;26.56;60.74
44872;BME280;30602;51.060;17.226;2022-08-19T07:41:34;100845.68;;;26.69;59.31
44872;BME280;30602;51.060;17.226;2022-08-19T07:44:44;100843.44;;;26.79;59.29
44872;BME280;30602;51.060;17.226;2022-08-19T07:48:14;100839.09;;;27.05;57.30
44872;BME280;30602;51.060;17.226;2022-08-19T07:55:27;100834.53;;;26.99;56.23
44872;BME280;30602;51.060;17.226;2022-08-19T07:58:41;100835.56;;;27.24;56.99
44872;BME280;30602;51.060;17.226;2022-08-19T08:02:24;100838.75;;;27.19;57.18
44872;BME280;30602;51.060;17.226;2022-08-19T08:06:28;100842.94;;;27.06;56.07
44872;BME280;30602;51.060;17.226;2022-08-19T08:09:56;100842.62;;;27.30;56.98
44872;BME280;30602;51.060;17.226;2022-08-19T08:13:08;100855.38;;;27.42;57.24
44872;BME280;30602;51.060;17.226;2022-08-19T08:16:41;100851.17;;;27.38;56.83
44872;BME280;30602;51.060;17.226;2022-08-19T08:19:57;100860.87;;;27.40;55.25
44872;BME280;30602;51.060;17.226;2022-08-19T08:23:39;100863.34;;;27.51;56.52
44872;BME280;30602;51.060;17.226;2022-08-19T08:26:52;100860.79;;;27.57;54.56
44872;BME280;30602;51.060;17.226;2022-08-19T08:30:54;100860.59;;;27.80;54.22
44872;BME280;30602;51.060;17.226;2022-08-19T08:34:38;100854.98;;;27.99;52.44
44872;BME280;30602;51.060;17.226;2022-08-19T08:37:50;100859.09;;;28.12;52.32
44872;BME280;30602;51.060;17.226;2022-08-19T08:44:54;100847.62;;;28.50;51.96
44872;BME280;30602;51.060;17.226;2022-08-19T08:48:19;100843.84;;;28.60;51.74
44872;BME280;30602;51.060;17.226;2022-08-19T08:51:59;100842.43;;;28.84;51.49
44872;BME280;30602;51.060;17.226;2022-08-19T08:55:54;100839.07;;;29.07;51.64
44872;BME280;30602;51.060;17.226;2022-08-19T08:59:31;100838.49;;;29.01;50.96
44872;BME280;30602;51.060;17.226;2022-08-19T09:03:16;100830.41;;;29.08;50.66
44872;BME280;30602;51.060;17.226;2022-08-19T09:17:24;100819.16;;;29.33;49.28
44872;BME280;30602;51.060;17.226;2022-08-19T09:20:41;100837.84;;;29.25;48.53
44872;BME280;30602;51.060;17.226;2022-08-19T09:24:28;100834.72;;;28.93;48.26
44872;BME280;30602;51.060;17.226;2022-08-19T09:27:37;100840.66;;;29.07;47.99
44872;BME280;30602;51.060;17.226;2022-08-19T09:31:18;100840.59;;;29.33;48.39
44872;BME280;30602;51.060;17.226;2022-08-19T09:34:32;100834.32;;;29.47;50.07
44872;BME280;30602;51.060;17.226;2022-08-19T09:37:48;100832.96;;;29.57;47.25
44872;BME280;30602;51.060;17.226;2022-08-19T09:40:55;100831.38;;;29.72;47.81
44872;BME280;30602;51.060;17.226;2022-08-19T09:44:40;100820.86;;;29.81;44.31
44872;BME280;30602;51.060;17.226;2022-08-19T09:48:22;100821.84;;;30.05;47.52
44872;BME280;30602;51.060;17.226;2022-08-19T09:52:07;100818.28;;;30.00;47.80
44872;BME280;30602;51.060;17.226;2022-08-19T09:55:43;100821.74;;;29.90;47.11
44872;BME280;30602;51.060;17.226;2022-08-19T09:58:54;100829.17;;;29.65;48.16
44872;BME280;30602;51.060;17.226;2022-08-19T10:02:26;100822.71;;;29.77;45.44
44872;BME280;30602;51.060;17.226;2022-08-19T10:05:49;100824.75;;;30.07;45.26
44872;BME280;30602;51.060;17.226;2022-08-19T10:08:57;100824.23;;;30.19;45.59
44872;BME280;30602;51.060;17.226;2022-08-19T10:12:28;100824.47;;;30.40;46.19
44872;BME280;30602;51.060;17.226;2022-08-19T10:16:10;100820.10;;;30.51;45.26
44872;BME280;30602;51.060;17.226;2022-08-19T10:19:23;100812.63;;;30.75;43.22
44872;BME280;30602;51.060;17.226;2022-08-19T10:22:34;100814.59;;;30.66;46.21
44872;BME280;30602;51.060;17.226;2022-08-19T10:29:57;100810.34;;;30.71;46.63
44872;BME280;30602;51.060;17.226;2022-08-19T10:33:27;100809.14;;;30.62;44.73
44872;BME280;30602;51.060;17.226;2022-08-19T10:37:34;100802.76;;;30.70;45.59
44872;BME280;30602;51.060;17.226;2022-08-19T10:44:56;100795.49;;;30.86;42.37
44872;BME280;30602;51.060;17.226;2022-08-19T10:48:29;100796.82;;;30.81;42.51
44872;BME280;30602;51.060;17.226;2022-08-19T10:52:10;100800.99;;;30.90;44.45
44872;BME280;30602;51.060;17.226;2022-08-19T10:55:49;100802.13;;;31.03;45.05
44872;BME280;30602;51.060;17.226;2022-08-19T10:59:33;100789.85;;;31.24;43.51
44872;BME280;30602;51.060;17.226;2022-08-19T11:03:40;100798.55;;;31.29;44.17
44872;BME280;30602;51.060;17.226;2022-08-19T11:07:11;100799.44;;;31.31;42.47
44872;BME280;30602;51.060;17.226;2022-08-19T11:10:46;100806.59;;;31.61;42.31
44872;BME280;30602;51.060;17.226;2022-08-19T11:13:58;100802.69;;;31.58;43.13
44872;BME280;30602;51.060;17.226;2022-08-19T11:17:07;100796.93;;;31.38;42.26
44872;BME280;30602;51.060;17.226;2022-08-19T11:20:19;100798.59;;;31.30;41.51
44872;BME280;30602;51.060;17.226;2022-08-19T11:23:53;100805.32;;;31.25;40.72
44872;BME280;30602;51.060;17.226;2022-08-19T11:27:41;100809.04;;;31.34;43.42
44872;BME280;30602;51.060;17.226;2022-08-19T11:32:11;100809.07;;;31.19;44.19
44872;BME280;30602;51.060;17.226;2022-08-19T11:35:23;100806.63;;;31.12;43.91
44872;BME280;30602;51.060;17.226;2022-08-19T11:39:07;100809.09;;;31.14;41.95
44872;BME280;30602;51.060;17.226;2022-08-19T11:42:20;100808.84;;;31.06;41.32
44872;BME280;30602;51.060;17.226;2022-08-19T11:45:41;100818.47;;;31.04;40.36
44872;BME280;30602;51.060;17.226;2022-08-19T11:49:59;100821.45;;;30.87;41.82
44872;BME280;30602;51.060;17.226;2022-08-19T11:53:12;100826.66;;;30.99;41.45
44872;BME280;30602;51.060;17.226;2022-08-19T11:56:43;100828.40;;;30.99;41.52
44872;BME280;30602;51.060;17.226;2022-08-19T12:00:27;100826.13;;;31.00;42.63
44872;BME280;30602;51.060;17.226;2022-08-19T12:03:50;100818.42;;;31.32;41.69
44872;BME280;30602;51.060;17.226;2022-08-19T12:07:24;100812.55;;;31.69;39.91
44872;BME280;30602;51.060;17.226;2022-08-19T12:11:04;100807.20;;;31.87;39.53
44872;BME280;30602;51.060;17.226;2022-08-19T12:15:01;100801.78;;;31.81;40.20
44872;BME280;30602;51.060;17.226;2022-08-19T12:18:32;100801.85;;;31.99;39.23
44872;BME280;30602;51.060;17.226;2022-08-19T12:21:44;100800.20;;;31.98;39.78
44872;BME280;30602;51.060;17.226;2022-08-19T12:25:15;100797.80;;;32.07;39.05
44872;BME280;30602;51.060;17.226;2022-08-19T12:28:42;100797.37;;;31.89;39.87
44872;BME280;30602;51.060;17.226;2022-08-19T12:32:27;100798.36;;;31.88;36.80
44872;BME280;30602;51.060;17.226;2022-08-19T12:36:02;100802.52;;;32.01;38.14
44872;BME280;30602;51.060;17.226;2022-08-19T12:39:41;100796.92;;;32.11;37.98
44872;BME280;30602;51.060;17.226;2022-08-19T12:43:42;100801.22;;;32.11;39.51
44872;BME280;30602;51.060;17.226;2022-08-19T12:46:52;100800.70;;;32.19;38.46
44872;BME280;30602;51.060;17.226;2022-08-19T12:50:06;100804.42;;;31.97;37.81
44872;BME280;30602;51.060;17.226;2022-08-19T12:53:40;100803.13;;;32.15;38.34
44872;BME280;30602;51.060;17.226;2022-08-19T12:57:11;100807.47;;;32.02;37.17
44872;BME280;30602;51.060;17.226;2022-08-19T13:00:52;100807.60;;;32.03;37.29
44872;BME280;30602;51.060;17.226;2022-08-19T13:04:21;100801.89;;;32.22;37.32
44872;BME280;30602;51.060;17.226;2022-08-19T13:07:53;100801.24;;;32.36;37.56
44872;BME280;30602;51.060;17.226;2022-08-19T13:11:13;100793.19;;;32.35;37.10
44872;BME280;30602;51.060;17.226;2022-08-19T13:14:23;100790.19;;;32.35;37.38
44872;BME280;30602;51.060;17.226;2022-08-19T13:17:32;100793.37;;;32.16;37.71
44872;BME280;30602;51.060;17.226;2022-08-19T13:21:04;100787.27;;;32.24;36.66
44872;BME280;30602;51.060;17.226;2022-08-19T13:24:40;100785.34;;;32.27;38.24
44872;BME280;30602;51.060;17.226;2022-08-19T13:28:08;100784.33;;;32.37;36.78
44872;BME280;30602;51.060;17.226;2022-08-19T13:31:19;100790.77;;;32.35;35.44
44872;BME280;30602;51.060;17.226;2022-08-19T13:35:24;100790.03;;;32.35;37.29
44872;BME280;30602;51.060;17.226;2022-08-19T13:38:55;100788.84;;;32.21;36.25
44872;BME280;30602;51.060;17.226;2022-08-19T13:42:41;100790.02;;;32.18;38.40
44872;BME280;30602;51.060;17.226;2022-08-19T13:46:15;100786.12;;;31.94;35.90
44872;BME280;30602;51.060;17.226;2022-08-19T13:49:28;100789.35;;;31.79;37.16
44872;BME280;30602;51.060;17.226;2022-08-19T13:52:43;100793.14;;;31.59;37.96
44872;BME280;30602;51.060;17.226;2022-08-19T13:57:01;100798.23;;;31.58;39.46
44872;BME280;30602;51.060;17.226;2022-08-19T14:00:26;100794.34;;;31.71;38.90
44872;BME280;30602;51.060;17.226;2022-08-19T14:03:56;100790.57;;;31.71;38.47
44872;BME280;30602;51.060;17.226;2022-08-19T14:07:28;100796.37;;;31.69;37.88
44872;BME280;30602;51.060;17.226;2022-08-19T14:10:57;100793.50;;;31.67;40.41
44872;BME280;30602;51.060;17.226;2022-08-19T14:14:06;100791.33;;;31.44;39.70
44872;BME280;30602;51.060;17.226;2022-08-19T14:17:14;100787.93;;;31.36;38.66
44872;BME280;30602;51.060;17.226;2022-08-19T14:20:29;100785.77;;;31.32;40.06
44872;BME280;30602;51.060;17.226;2022-08-19T14:24:19;100787.41;;;31.12;43.09
44872;BME280;30602;51.060;17.226;2022-08-19T14:27:49;100791.14;;;31.09;40.77
44872;BME280;30602;51.060;17.226;2022-08-19T14:31:19;100783.70;;;30.97;40.87
44872;BME280;30602;51.060;17.226;2022-08-19T14:35:17;100786.27;;;30.92;41.26
44872;BME280;30602;51.060;17.226;2022-08-19T14:38:24;100784.50;;;30.81;41.70
44872;BME280;30602;51.060;17.226;2022-08-19T14:42:33;100782.41;;;30.74;41.55
44872;BME280;30602;51.060;17.226;2022-08-19T14:45:45;100780.36;;;30.63;43.12
44872;BME280;30602;51.060;17.226;2022-08-19T14:49:50;100778.67;;;30.57;40.94
44872;BME280;30602;51.060;17.226;2022-08-19T14:57:15;100777.33;;;30.64;41.37
44872;BME280;30602;51.060;17.226;2022-08-19T15:01:00;100774.96;;;30.58;42.34
44872;BME280;30602;51.060;17.226;2022-08-19T15:04:13;100776.07;;;30.45;43.30
44872;BME280;30602;51.060;17.226;2022-08-19T15:07:43;100773.69;;;30.38;42.41
44872;BME280;30602;51.060;17.226;2022-08-19T15:11:17;100778.33;;;30.26;40.36
44872;BME280;30602;51.060;17.226;2022-08-19T15:14:43;100768.94;;;30.27;42.39
44872;BME280;30602;51.060;17.226;2022-08-19T15:18:00;100775.77;;;30.31;42.21
44872;BME280;30602;51.060;17.226;2022-08-19T15:21:21;100779.37;;;30.24;43.43
44872;BME280;30602;51.060;17.226;2022-08-19T15:25:19;100774.40;;;30.30;42.24
44872;BME280;30602;51.060;17.226;2022-08-19T15:28:26;100777.20;;;30.32;41.50
44872;BME280;30602;51.060;17.226;2022-08-19T15:31:54;100788.18;;;30.10;43.95
44872;BME280;30602;51.060;17.226;2022-08-19T15:35:35;100791.57;;;29.97;43.72
44872;BME280;30602;51.060;17.226;2022-08-19T15:39:06;100787.38;;;29.91;42.86
44872;BME280;30602;51.060;17.226;2022-08-19T15:42:38;100784.25;;;29.97;42.97
44872;BME280;30602;51.060;17.226;2022-08-19T15:45:48;100788.06;;;29.97;43.15
44872;BME280;30602;51.060;17.226;2022-08-19T15:49:17;100790.98;;;29.98;44.38
44872;BME280;30602;51.060;17.226;2022-08-19T15:53:13;100791.95;;;29.93;44.66
44872;BME280;30602;51.060;17.226;2022-08-19T15:56:55;100799.24;;;29.79;45.01
44872;BME280;30602;51.060;17.226;2022-08-19T16:00:27;100809.00;;;29.70;45.42
44872;BME280;30602;51.060;17.226;2022-08-19T16:04:19;100813.21;;;29.57;45.96
44872;BME280;30602;51.060;17.226;2022-08-19T16:07:54;100820.01;;;29.44;47.13
44872;BME280;30602;51.060;17.226;2022-08-19T16:16:13;100800.13;;;29.40;48.57
44872;BME280;30602;51.060;17.226;2022-08-19T16:19:43;100803.87;;;29.12;49.87
44872;BME280;30602;51.060;17.226;2022-08-19T16:22:59;100809.80;;;28.87;50.81
44872;BME280;30602;51.060;17.226;2022-08-19T16:26:32;100810.47;;;28.72;51.52
44872;BME280;30602;51.060;17.226;2022-08-19T16:29:45;100819.16;;;28.67;52.76
44872;BME280;30602;51.060;17.226;2022-08-19T16:32:53;100825.50;;;28.60;52.47
44872;BME280;30602;51.060;17.226;2022-08-19T16:36:07;100828.35;;;28.58;52.91
44872;BME280;30602;51.060;17.226;2022-08-19T16:39:40;100832.46;;;28.65;52.95
44872;BME280;30602;51.060;17.226;2022-08-19T16:47:37;100849.37;;;28.68;53.97
44872;BME280;30602;51.060;17.226;2022-08-19T16:50:49;100838.03;;;28.53;54.60
44872;BME280;30602;51.060;17.226;2022-08-19T16:54:16;100829.28;;;28.43;55.43
44872;BME280;30602;51.060;17.226;2022-08-19T16:57:48;100829.17;;;28.31;55.16
44872;BME280;30602;51.060;17.226;2022-08-19T17:01:04;100830.12;;;28.23;55.66
44872;BME280;30602;51.060;17.226;2022-08-19T17:04:44;100838.95;;;28.14;56.79
44872;BME280;30602;51.060;17.226;2022-08-19T17:08:31;100847.20;;;28.05;57.26
44872;BME280;30602;51.060;17.226;2022-08-19T17:12:20;100849.58;;;28.01;57.33
44872;BME280;30602;51.060;17.226;2022-08-19T17:15:31;100840.63;;;27.93;56.76
44872;BME280;30602;51.060;17.226;2022-08-19T17:18:58;100839.80;;;27.79;57.26
44872;BME280;30602;51.060;17.226;2022-08-19T17:22:42;100841.88;;;27.71;57.49
44872;BME280;30602;51.060;17.226;2022-08-19T17:25:52;100841.38;;;27.61;59.09
44872;BME280;30602;51.060;17.226;2022-08-19T17:29:02;100839.30;;;27.58;58.29
44872;BME280;30602;51.060;17.226;2022-08-19T17:32:15;100846.02;;;27.48;59.01
44872;BME280;30602;51.060;17.226;2022-08-19T17:36:28;100850.95;;;27.44;59.01
44872;BME280;30602;51.060;17.226;2022-08-19T17:39:48;100868.34;;;27.19;61.54
44872;BME280;30602;51.060;17.226;2022-08-19T17:43:17;100894.34;;;27.05;61.50
44872;BME280;30602;51.060;17.226;2022-08-19T17:46:56;100906.07;;;26.92;63.96
44872;BME280;30602;51.060;17.226;2022-08-19T17:50:25;100914.38;;;26.87;64.69
44872;BME280;30602;51.060;17.226;2022-08-19T17:53:59;100924.63;;;26.69;67.05
44872;BME280;30602;51.060;17.226;2022-08-19T17:57:51;100937.86;;;26.52;67.74
44872;BME280;30602;51.060;17.226;2022-08-19T18:01:28;100938.69;;;26.41;68.25
44872;BME280;30602;51.060;17.226;2022-08-19T18:05:03;100936.01;;;26.27;68.83
44872;BME280;30602;51.060;17.226;2022-08-19T18:08:14;100934.62;;;26.23;68.75
44872;BME280;30602;51.060;17.226;2022-08-19T18:11:55;100938.74;;;26.20;69.05
44872;BME280;30602;51.060;17.226;2022-08-19T18:15:21;100938.80;;;26.10;69.01
44872;BME280;30602;51.060;17.226;2022-08-19T18:18:47;100939.59;;;26.07;69.65
44872;BME280;30602;51.060;17.226;2022-08-19T18:22:30;100940.19;;;25.97;70.55
44872;BME280;30602;51.060;17.226;2022-08-19T18:26:33;100938.44;;;25.88;70.47
44872;BME280;30602;51.060;17.226;2022-08-19T18:29:44;100943.62;;;25.81;70.17
44872;BME280;30602;51.060;17.226;2022-08-19T18:33:00;100954.67;;;25.78;71.08
44872;BME280;30602;51.060;17.226;2022-08-19T18:36:18;100960.41;;;25.70;71.11
44872;BME280;30602;51.060;17.226;2022-08-19T18:39:58;100963.13;;;25.66;71.73
44872;BME280;30602;51.060;17.226;2022-08-19T18:43:21;100968.56;;;25.56;72.14
44872;BME280;30602;51.060;17.226;2022-08-19T18:47:07;100969.77;;;25.56;72.02
44872;BME280;30602;51.060;17.226;2022-08-19T18:50:25;100903.36;;;25.08;71.62
44872;BME280;30602;51.060;17.226;2022-08-19T18:54:17;100984.15;;;25.55;70.20
44872;BME280;30602;51.060;17.226;2022-08-19T18:57:49;100986.95;;;25.63;69.73
44872;BME280;30602;51.060;17.226;2022-08-19T19:05:17;101004.78;;;25.60;68.52
44872;BME280;30602;51.060;17.226;2022-08-19T19:08:51;101023.52;;;25.71;67.35